Time;durP1;ratioP1;P1;durP2;ratioP2;P2;SDS_P1;SDS_P2;PMS_P1;PMS_P2;Temp;Humidity;BMP_temperature;BMP_pressure;BME280_temperature;BME280_humidity;BME280_pressure;Samples;Min_cycle;Max_cycle;Signal;HPM_P1;HPM_P2
2024/02/16 00:02:18;;;;;;;3.53;1.80;;;12.10;99.90;;;;;;5058801;28;20034;-83
2024/02/16 00:04:43;;;;;;;3.67;2.00;;;12.10;99.90;;;;;;5059471;28;20127;-83
2024/02/16 00:07:09;;;;;;;5.10;2.03;;;12.10;99.90;;;;;;5058746;28;20119;-84
2024/02/16 00:09:35;;;;;;;4.55;2.13;;;12.10;99.90;;;;;;5059377;28;20115;-83
2024/02/16 00:12:01;;;;;;;3.75;1.90;;;12.10;99.90;;;;;;5058899;28;20395;-84
2024/02/16 00:14:27;;;;;;;3.85;2.03;;;12.00;99.90;;;;;;5058879;28;20440;-85
2024/02/16 00:16:59;;;;;;;3.70;1.85;;;12.10;99.90;;;;;;5058882;28;20090;-85
2024/02/16 00:19:24;;;;;;;4.30;2.00;;;12.10;99.90;;;;;;5075804;28;20111;-84
2024/02/16 00:21:51;;;;;;;5.07;2.08;;;12.10;99.90;;;;;;5075033;28;20423;-84
2024/02/16 00:24:17;;;;;;;3.38;2.00;;;12.10;99.90;;;;;;5075934;28;20224;-84
2024/02/16 00:26:45;;;;;;;2.80;2.00;;;12.00;99.90;;;;;;5076240;28;20020;-84
2024/02/16 00:29:11;;;;;;;2.70;1.90;;;12.00;99.90;;;;;;5076355;28;20517;-84
2024/02/16 00:31:36;;;;;;;4.05;2.00;;;12.00;99.90;;;;;;5076144;28;20025;-84
2024/02/16 00:34:02;;;;;;;3.45;1.98;;;12.00;99.90;;;;;;5086219;28;20015;-84
2024/02/16 00:36:30;;;;;;;4.07;2.10;;;12.00;99.90;;;;;;5101150;28;20024;-84
2024/02/16 00:38:56;;;;;;;4.07;2.10;;;12.00;99.90;;;;;;5118581;28;20059;-85
2024/02/16 00:41:23;;;;;;;3.20;2.17;;;12.00;99.90;;;;;;5084150;28;20015;-84
2024/02/16 00:43:50;;;;;;;6.68;2.22;;;12.00;99.90;;;;;;5089484;28;20039;-83
2024/02/16 00:46:16;;;;;;;3.42;2.03;;;11.90;99.90;;;;;;5094005;28;20016;-83
2024/02/16 00:48:42;;;;;;;3.47;1.92;;;11.90;99.90;;;;;;5059021;28;20170;-83
2024/02/16 00:51:08;;;;;;;7.20;2.35;;;11.90;99.90;;;;;;5058699;28;20043;-85
2024/02/16 00:53:33;;;;;;;4.78;2.10;;;11.90;99.90;;;;;;5058720;28;20035;-84
2024/02/16 00:55:59;;;;;;;3.70;1.73;;;11.90;99.90;;;;;;5075172;28;20029;-84
2024/02/16 00:58:24;;;;;;;3.47;1.80;;;11.80;99.90;;;;;;5074915;28;20365;-83
2024/02/16 01:00:50;;;;;;;3.90;1.95;;;11.80;99.90;;;;;;5058608;28;20481;-84
2024/02/16 01:03:16;;;;;;;3.42;2.00;;;11.80;99.90;;;;;;5074910;28;20089;-84
2024/02/16 01:05:41;;;;;;;3.28;1.90;;;11.80;99.90;;;;;;5058512;28;20029;-83
2024/02/16 01:08:07;;;;;;;3.28;2.17;;;11.80;99.90;;;;;;5075052;28;20028;-84
2024/02/16 01:10:33;;;;;;;3.85;2.05;;;11.80;99.90;;;;;;5093120;28;20081;-84
2024/02/16 01:12:58;;;;;;;4.20;2.38;;;11.80;99.90;;;;;;5058399;28;20032;-83
2024/02/16 01:15:24;;;;;;;5.57;2.38;;;11.80;99.90;;;;;;5074928;28;20028;-83
2024/02/16 01:17:50;;;;;;;3.55;2.10;;;11.80;99.90;;;;;;5092967;28;20048;-84
2024/02/16 01:20:16;;;;;;;3.85;2.20;;;11.80;99.90;;;;;;5075377;28;20047;-85
2024/02/16 01:22:41;;;;;;;4.35;2.55;;;11.80;99.90;;;;;;5075370;28;20052;-84
2024/02/16 01:25:08;;;;;;;2.45;1.90;;;11.80;99.90;;;;;;5075382;28;20488;-83
2024/02/16 01:27:35;;;;;;;3.35;1.90;;;11.70;99.90;;;;;;5075236;28;20494;-83
2024/02/16 01:30:01;;;;;;;3.50;2.50;;;11.80;99.90;;;;;;5058576;28;20455;-84
2024/02/16 01:32:27;;;;;;;4.80;2.70;;;11.70;99.90;;;;;;5074989;28;20039;-83
2024/02/16 01:34:52;;;;;;;3.65;2.10;;;11.70;99.90;;;;;;5060445;28;20028;-85
2024/02/16 01:37:18;;;;;;;4.63;1.95;;;11.70;99.90;;;;;;5078283;28;20473;-83
2024/02/16 01:39:44;;;;;;;2.00;1.80;;;11.70;99.90;;;;;;5078353;28;20032;-84
2024/02/16 01:42:10;;;;;;;4.78;2.28;;;11.70;99.90;;;;;;5078737;28;20085;-85
2024/02/16 01:44:37;;;;;;;3.67;2.22;;;11.70;99.90;;;;;;5061695;28;20563;-84
2024/02/16 01:47:04;;;;;;;3.75;2.22;;;11.70;99.90;;;;;;5061780;28;20032;-85
2024/02/16 01:49:29;;;;;;;5.68;2.70;;;11.70;99.90;;;;;;5061435;28;20157;-84
2024/02/16 01:51:55;;;;;;;3.78;2.38;;;11.70;99.90;;;;;;5096383;28;20041;-84
2024/02/16 01:54:21;;;;;;;5.38;2.20;;;11.70;99.90;;;;;;5077943;28;20093;-84
2024/02/16 01:56:47;;;;;;;5.65;2.53;;;11.70;99.90;;;;;;5061657;28;20020;-83
2024/02/16 01:59:13;;;;;;;3.25;2.03;;;11.60;99.90;;;;;;5078327;28;20028;-84
2024/02/16 02:01:39;;;;;;;3.53;2.17;;;11.60;99.90;;;;;;5061272;28;20387;-84
2024/02/16 02:04:06;;;;;;;4.22;2.03;;;11.60;99.90;;;;;;5078298;28;20024;-83
2024/02/16 02:06:31;;;;;;;3.05;2.40;;;11.60;99.90;;;;;;5096874;28;20027;-84
2024/02/16 02:08:57;;;;;;;3.08;1.85;;;11.70;99.90;;;;;;5077244;28;20028;-83
2024/02/16 02:11:23;;;;;;;3.45;2.13;;;11.60;99.90;;;;;;5086312;28;20015;-83
2024/02/16 02:13:48;;;;;;;4.28;2.33;;;11.60;99.90;;;;;;5086878;28;20099;-83
2024/02/16 02:16:16;;;;;;;5.05;2.55;;;11.60;99.90;;;;;;5120192;28;20066;-83
2024/02/16 02:18:43;;;;;;;5.35;2.30;;;11.60;99.90;;;;;;5086057;28;20368;-85
2024/02/16 02:21:09;;;;;;;2.83;2.10;;;11.60;99.90;;;;;;5078219;28;20025;-84
2024/02/16 02:23:35;;;;;;;3.40;2.05;;;11.60;99.90;;;;;;5061157;28;20085;-84
2024/02/16 02:26:01;;;;;;;5.38;2.10;;;11.60;99.90;;;;;;5095993;28;20031;-85
2024/02/16 02:28:27;;;;;;;3.53;2.08;;;11.60;99.90;;;;;;5077836;28;20032;-84
2024/02/16 02:30:53;;;;;;;5.93;2.45;;;11.60;99.90;;;;;;5095612;28;20028;-84
2024/02/16 02:33:21;;;;;;;3.13;2.00;;;11.60;99.90;;;;;;5095367;28;20072;-86
2024/02/16 02:35:47;;;;;;;4.10;2.20;;;11.60;99.90;;;;;;5060717;28;20032;-84
2024/02/16 02:38:13;;;;;;;2.42;1.90;;;11.60;99.90;;;;;;5077437;28;20386;-83
2024/02/16 02:40:38;;;;;;;3.22;2.17;;;11.60;99.90;;;;;;5060482;28;20520;-84
2024/02/16 02:43:06;;;;;;;2.70;1.98;;;11.50;99.90;;;;;;5077494;28;20472;-84
2024/02/16 02:45:31;;;;;;;3.83;1.90;;;11.50;99.90;;;;;;5076665;28;20027;-84
2024/02/16 02:47:57;;;;;;;3.47;1.92;;;11.60;99.90;;;;;;5060563;28;20378;-84
2024/02/16 02:50:24;;;;;;;4.55;2.28;;;11.60;99.90;;;;;;5077100;28;20108;-84
2024/02/16 02:52:49;;;;;;;4.07;1.95;;;11.60;99.90;;;;;;5076994;28;20359;-83
2024/02/16 02:55:15;;;;;;;6.50;2.35;;;11.60;99.90;;;;;;5077304;28;20032;-84
2024/02/16 02:57:41;;;;;;;3.50;2.00;;;11.60;99.90;;;;;;5077064;28;20027;-83
2024/02/16 03:00:11;;;;;;;2.75;2.05;;;11.60;99.90;;;;;;5060225;28;20040;-83
2024/02/16 03:02:40;;;;;;;4.38;2.55;;;11.50;99.90;;;;;;5076567;28;20024;-84
2024/02/16 03:05:09;;;;;;;3.83;1.73;;;11.60;99.90;;;;;;5076675;28;20017;-83
2024/02/16 03:07:35;;;;;;;5.43;2.38;;;11.60;99.90;;;;;;5094731;28;20084;-83
2024/02/16 03:10:03;;;;;;;6.40;2.22;;;11.60;99.90;;;;;;5076820;28;20035;-84
2024/02/16 03:12:29;;;;;;;4.70;2.00;;;11.60;99.90;;;;;;5076190;28;20055;-84
2024/02/16 03:14:55;;;;;;;4.05;1.80;;;11.60;99.90;;;;;;5094922;28;20483;-84
2024/02/16 03:17:20;;;;;;;6.75;2.67;;;11.60;99.90;;;;;;5060353;28;20052;-83
2024/02/16 03:19:46;;;;;;;2.95;1.85;;;11.60;99.90;;;;;;5061082;28;20047;-84
2024/02/16 03:22:12;;;;;;;3.03;1.85;;;11.60;99.90;;;;;;5083074;28;20039;-83
2024/02/16 03:24:38;;;;;;;3.20;2.00;;;11.60;99.90;;;;;;5079856;28;20035;-84
2024/02/16 03:27:04;;;;;;;3.70;2.33;;;11.60;99.90;;;;;;5080002;28;20028;-84
2024/02/16 03:29:29;;;;;;;4.15;2.20;;;11.60;99.90;;;;;;5064373;28;20373;-84
2024/02/16 03:31:56;;;;;;;2.85;2.30;;;11.60;99.90;;;;;;5060616;28;20476;-84
2024/02/16 03:34:21;;;;;;;3.33;2.03;;;11.60;99.90;;;;;;5059776;28;20028;-84
2024/02/16 03:36:47;;;;;;;2.88;1.88;;;11.60;99.90;;;;;;5076227;28;20031;-85
2024/02/16 03:39:13;;;;;;;3.05;1.75;;;11.60;99.90;;;;;;5060100;28;20082;-84
2024/02/16 03:41:39;;;;;;;3.70;2.10;;;11.60;99.90;;;;;;5060847;28;20387;-84
2024/02/16 03:44:04;;;;;;;3.42;2.10;;;11.70;99.90;;;;;;5076386;28;20031;-84
2024/02/16 03:46:30;;;;;;;2.92;2.08;;;11.70;99.90;;;;;;5099626;28;20008;-82
2024/02/16 03:48:56;;;;;;;3.30;2.30;;;11.70;99.90;;;;;;5101493;28;20023;-83
2024/02/16 03:51:22;;;;;;;2.63;1.88;;;11.70;99.90;;;;;;5101263;28;20020;-83
2024/02/16 03:53:47;;;;;;;4.03;2.08;;;11.70;99.90;;;;;;5118485;28;20102;-84
2024/02/16 03:56:19;;;;;;;4.50;2.17;;;11.70;99.90;;;;;;5097098;28;20036;-84
2024/02/16 03:58:45;;;;;;;3.63;1.98;;;11.70;99.90;;;;;;5075963;28;20035;-84
2024/02/16 04:01:10;;;;;;;4.47;2.58;;;11.70;99.90;;;;;;5059342;28;20028;-84
2024/02/16 04:03:36;;;;;;;3.22;2.15;;;11.60;99.90;;;;;;5075758;28;20028;-84
2024/02/16 04:06:04;;;;;;;3.92;2.38;;;11.60;99.90;;;;;;5059319;28;20028;-84
2024/02/16 04:08:30;;;;;;;5.00;2.25;;;11.70;99.90;;;;;;5093839;28;20024;-84
2024/02/16 04:10:55;;;;;;;2.67;2.00;;;11.70;99.90;;;;;;5075744;28;20406;-84
2024/02/16 04:13:21;;;;;;;3.30;1.85;;;11.70;99.90;;;;;;5075740;28;20040;-84
2024/02/16 04:15:47;;;;;;;3.47;2.10;;;11.70;99.90;;;;;;5075370;28;20024;-84
2024/02/16 04:18:12;;;;;;;2.97;1.90;;;11.70;99.90;;;;;;5058922;28;20094;-84
2024/02/16 04:20:40;;;;;;;2.42;1.90;;;11.70;99.90;;;;;;5075380;28;20075;-84
2024/02/16 04:23:06;;;;;;;4.95;1.90;;;11.70;99.90;;;;;;5059244;28;20032;-84
2024/02/16 04:25:32;;;;;;;3.15;1.80;;;11.80;99.90;;;;;;5059044;28;20429;-83
2024/02/16 04:28:00;;;;;;;4.75;2.35;;;11.80;99.90;;;;;;5059005;28;20036;-84
2024/02/16 04:30:26;;;;;;;4.05;2.03;;;11.80;99.90;;;;;;5059309;28;20035;-84
2024/02/16 04:32:52;;;;;;;2.72;1.98;;;11.80;99.90;;;;;;5058858;28;20043;-83
2024/02/16 04:35:18;;;;;;;3.85;2.20;;;11.80;99.90;;;;;;5058719;28;20036;-84
2024/02/16 04:37:44;;;;;;;3.05;1.90;;;11.80;99.90;;;;;;5075631;28;20032;-84
2024/02/16 04:40:12;;;;;;;4.10;2.42;;;11.80;99.90;;;;;;5059352;28;20089;-84
2024/02/16 04:42:40;;;;;;;3.13;1.95;;;11.80;99.90;;;;;;5059285;28;20051;-84
2024/02/16 04:45:06;;;;;;;3.55;2.10;;;11.80;99.90;;;;;;5059260;28;20031;-84
2024/02/16 04:47:31;;;;;;;5.32;2.35;;;11.80;99.90;;;;;;5059302;28;20024;-83
2024/02/16 04:50:00;;;;;;;3.50;2.33;;;11.80;99.90;;;;;;5058692;28;20442;-85
2024/02/16 04:52:26;;;;;;;4.43;2.35;;;11.80;99.90;;;;;;5075771;28;20052;-85
2024/02/16 04:54:52;;;;;;;3.25;2.08;;;11.90;99.90;;;;;;5059150;28;20028;-85
2024/02/16 04:57:17;;;;;;;3.95;2.45;;;11.90;99.90;;;;;;5075801;28;20032;-84
2024/02/16 04:59:43;;;;;;;4.70;2.60;;;11.90;99.90;;;;;;5093746;28;20356;-85
2024/02/16 05:02:09;;;;;;;3.80;2.30;;;11.90;99.90;;;;;;5059522;28;20032;-85
2024/02/16 05:04:35;;;;;;;3.30;2.20;;;11.90;99.90;;;;;;5061051;28;20028;-85
2024/02/16 05:07:00;;;;;;;2.88;2.08;;;11.90;99.90;;;;;;5081242;28;20035;-84
2024/02/16 05:09:26;;;;;;;3.67;2.45;;;12.00;99.90;;;;;;5080519;28;20035;-84
2024/02/16 05:11:52;;;;;;;4.03;2.20;;;12.00;99.90;;;;;;5101194;28;20028;-84
2024/02/16 05:14:18;;;;;;;3.25;2.17;;;12.00;99.90;;;;;;5083884;28;20024;-83
2024/02/16 05:16:44;;;;;;;2.47;1.90;;;12.00;99.90;;;;;;5082599;28;20047;-84
2024/02/16 05:19:10;;;;;;;3.97;2.30;;;12.10;99.90;;;;;;5120519;28;20048;-84
2024/02/16 05:21:35;;;;;;;4.32;2.20;;;12.10;99.90;;;;;;5103678;28;20039;-83
2024/02/16 05:24:02;;;;;;;3.28;2.08;;;12.10;99.90;;;;;;5087818;28;20031;-84
2024/02/16 05:26:31;;;;;;;4.75;2.38;;;12.10;99.90;;;;;;5100542;28;20028;-84
2024/02/16 05:28:56;;;;;;;3.88;2.22;;;12.10;99.90;;;;;;5078541;28;20480;-84
2024/02/16 05:31:22;;;;;;;2.60;1.88;;;12.10;99.90;;;;;;5062290;28;20031;-84
2024/02/16 05:33:52;;;;;;;2.90;2.00;;;12.10;99.90;;;;;;5061943;28;20040;-84
2024/02/16 05:36:20;;;;;;;2.92;2.25;;;12.10;99.90;;;;;;5097395;28;20103;-84
2024/02/16 05:38:46;;;;;;;5.95;2.30;;;12.20;99.90;;;;;;5078759;28;20130;-84
2024/02/16 05:41:12;;;;;;;3.63;2.40;;;12.20;99.90;;;;;;5061310;28;20028;-85
2024/02/16 05:43:38;;;;;;;3.92;2.53;;;12.20;99.90;;;;;;5078362;28;20032;-82
2024/02/16 05:46:07;;;;;;;2.92;2.00;;;12.20;99.90;;;;;;5061357;28;20024;-82
2024/02/16 05:48:37;;;;;;;2.80;2.15;;;12.20;99.90;;;;;;5078477;28;20071;-83
2024/02/16 05:51:05;;;;;;;3.45;2.47;;;12.20;99.90;;;;;;5078731;28;20012;-83
2024/02/16 05:53:31;;;;;;;3.22;2.13;;;12.20;99.90;;;;;;5096505;28;20021;-84
2024/02/16 05:55:56;;;;;;;3.13;1.95;;;12.20;99.90;;;;;;5078065;28;20103;-83
2024/02/16 05:58:23;;;;;;;4.30;2.33;;;12.20;99.90;;;;;;5078068;28;20020;-87
2024/02/16 06:00:49;;;;;;;3.67;2.17;;;12.30;99.90;;;;;;5061481;28;20033;-84
2024/02/16 06:03:14;;;;;;;3.08;2.50;;;12.30;99.90;;;;;;5061407;28;20123;-84
2024/02/16 06:05:40;;;;;;;3.08;2.45;;;12.30;99.90;;;;;;5078099;28;20077;-84
2024/02/16 06:08:07;;;;;;;5.88;2.50;;;12.30;99.90;;;;;;5061770;28;20048;-82
2024/02/16 06:10:33;;;;;;;3.22;2.15;;;12.30;99.90;;;;;;5061499;28;20035;-84
2024/02/16 06:12:59;;;;;;;3.15;2.15;;;12.30;99.90;;;;;;5078341;28;20069;-85
2024/02/16 06:15:25;;;;;;;3.65;2.13;;;12.30;99.90;;;;;;5061572;28;20111;-84
2024/02/16 06:17:50;;;;;;;4.60;2.53;;;12.30;99.90;;;;;;5077604;28;20471;-84
2024/02/16 06:20:16;;;;;;;3.03;2.28;;;12.30;99.90;;;;;;5094993;28;20020;-83
2024/02/16 06:22:42;;;;;;;4.07;2.05;;;12.30;99.90;;;;;;5077510;28;20089;-83
2024/02/16 06:25:08;;;;;;;3.97;2.20;;;12.30;99.90;;;;;;5060714;28;20392;-83
2024/02/16 06:27:34;;;;;;;3.17;2.42;;;12.30;99.90;;;;;;5077334;28;20028;-84
2024/02/16 06:30:00;;;;;;;3.20;2.25;;;12.40;99.90;;;;;;5061289;28;20028;-83
2024/02/16 06:32:26;;;;;;;4.82;2.55;;;12.30;99.90;;;;;;5077946;28;20028;-83
2024/02/16 06:34:53;;;;;;;4.25;2.22;;;12.40;99.90;;;;;;5077687;28;20107;-83
2024/02/16 06:37:18;;;;;;;4.15;2.55;;;12.40;99.90;;;;;;5060991;28;20027;-85
2024/02/16 06:39:50;;;;;;;3.95;2.35;;;12.40;99.90;;;;;;5077965;28;20032;-84
2024/02/16 06:42:15;;;;;;;4.63;2.60;;;12.40;99.90;;;;;;5061763;28;20025;-84
2024/02/16 06:44:41;;;;;;;3.92;2.38;;;12.40;99.90;;;;;;5061525;28;20382;-84
2024/02/16 06:47:07;;;;;;;3.67;2.45;;;12.40;99.90;;;;;;5061829;28;20440;-84
2024/02/16 06:49:32;;;;;;;4.03;2.67;;;12.40;99.90;;;;;;5083729;28;20028;-84
2024/02/16 06:51:58;;;;;;;3.00;2.30;;;12.50;99.90;;;;;;5077718;28;20028;-85
2024/02/16 06:54:27;;;;;;;3.67;2.13;;;12.50;99.90;;;;;;5085409;28;20008;-84
2024/02/16 06:56:53;;;;;;;4.40;2.60;;;12.50;99.90;;;;;;5102485;28;20028;-82
2024/02/16 06:59:19;;;;;;;6.35;2.65;;;12.50;99.90;;;;;;5100769;28;20040;-84
2024/02/16 07:01:45;;;;;;;3.58;2.42;;;12.50;99.90;;;;;;5089660;28;20024;-83
2024/02/16 07:04:11;;;;;;;3.65;2.25;;;12.50;99.90;;;;;;5095633;28;20157;-83
2024/02/16 07:06:36;;;;;;;3.47;2.50;;;12.50;99.90;;;;;;5077303;28;20059;-83
2024/02/16 07:09:02;;;;;;;3.28;2.53;;;12.60;99.90;;;;;;5060379;28;20391;-84
2024/02/16 07:11:28;;;;;;;3.15;2.47;;;12.60;99.90;;;;;;5060428;28;20031;-84
2024/02/16 07:13:54;;;;;;;3.90;2.22;;;12.60;99.90;;;;;;5077478;28;20525;-84
2024/02/16 07:16:25;;;;;;;2.70;2.22;;;12.60;99.90;;;;;;5060129;28;20024;-83
2024/02/16 07:18:51;;;;;;;;;;;12.60;99.90;;;;;;5077837;28;20040;-84
2024/02/16 07:21:20;;;;;;;3.20;2.38;;;12.60;99.90;;;;;;5059869;28;19960;-84
2024/02/16 07:23:58;;;;;;;3.60;2.67;;;12.60;99.90;;;;;;5076746;28;20020;-83
2024/02/16 07:26:24;;;;;;;3.65;2.78;;;12.60;99.90;;;;;;5095075;28;20020;-83
2024/02/16 07:28:49;;;;;;;5.05;3.15;;;12.60;99.90;;;;;;5059811;28;20035;-84
2024/02/16 07:31:15;;;;;;;3.42;2.63;;;12.60;99.90;;;;;;5059733;28;20029;-83
2024/02/16 07:33:42;;;;;;;4.28;2.70;;;12.60;99.90;;;;;;5094126;28;20111;-83
2024/02/16 07:36:07;;;;;;;5.45;2.80;;;12.70;99.90;;;;;;5094395;28;20030;-83
2024/02/16 07:38:33;;;;;;;3.80;2.75;;;12.70;99.90;;;;;;5059706;28;20439;-83
2024/02/16 07:40:59;;;;;;;4.85;2.90;;;12.70;99.90;;;;;;5076003;28;20438;-84
2024/02/16 07:43:26;;;;;;;5.00;2.75;;;12.70;99.90;;;;;;5059498;28;20107;-84
2024/02/16 07:45:53;;;;;;;3.45;2.40;;;12.70;99.90;;;;;;5059704;28;20028;-83
2024/02/16 07:48:21;;;;;;;4.93;2.60;;;12.70;99.90;;;;;;5059568;28;20421;-83
2024/02/16 07:50:47;;;;;;;4.60;2.72;;;12.70;99.90;;;;;;5059395;28;20538;-84
2024/02/16 07:53:12;;;;;;;3.63;2.65;;;12.70;99.90;;;;;;5059269;28;20051;-83
2024/02/16 07:55:38;;;;;;;4.25;2.63;;;12.70;99.90;;;;;;5059113;28;20043;-83
2024/02/16 07:58:04;;;;;;;3.28;2.60;;;12.70;99.90;;;;;;5075846;28;20383;-83
2024/02/16 08:00:31;;;;;;;7.00;2.65;;;12.80;99.90;;;;;;5059276;28;20040;-83
2024/02/16 08:02:59;;;;;;;3.47;2.40;;;12.80;99.90;;;;;;5076422;28;20058;-83
2024/02/16 08:05:26;;;;;;;4.45;2.63;;;12.80;99.90;;;;;;5077081;28;20028;-82
2024/02/16 08:07:53;;;;;;;3.65;2.92;;;12.80;99.90;;;;;;5059947;28;20028;-82
2024/02/16 08:10:22;;;;;;;4.07;2.63;;;12.80;99.90;;;;;;5076193;28;20463;-83
2024/02/16 08:12:48;;;;;;;7.57;3.38;;;12.90;99.90;;;;;;5076636;28;20024;-82
2024/02/16 08:15:14;;;;;;;5.82;2.80;;;12.90;99.90;;;;;;5075913;28;20052;-83
2024/02/16 08:17:40;;;;;;;4.70;2.95;;;12.90;99.90;;;;;;5060097;28;20052;-83
2024/02/16 08:20:07;;;;;;;5.10;3.15;;;12.90;99.90;;;;;;5094936;28;20064;-83
2024/02/16 08:22:34;;;;;;;4.88;2.88;;;12.90;99.90;;;;;;5064536;28;20078;-82
2024/02/16 08:24:59;;;;;;;6.03;2.75;;;12.90;99.90;;;;;;5088446;28;20020;-83
2024/02/16 08:27:25;;;;;;;4.93;3.03;;;13.00;99.90;;;;;;5098268;28;20042;-84
2024/02/16 08:29:53;;;;;;;6.07;2.88;;;13.00;99.90;;;;;;5100983;28;20044;-83
2024/02/16 08:32:20;;;;;;;5.22;3.22;;;13.00;99.90;;;;;;5101299;28;20032;-83
2024/02/16 08:34:48;;;;;;;3.05;2.63;;;13.10;99.90;;;;;;5100078;28;20031;-83
2024/02/16 08:37:14;;;;;;;4.10;2.55;;;13.10;99.90;;;;;;5100183;28;20027;-83
2024/02/16 08:39:39;;;;;;;3.63;2.80;;;13.10;99.90;;;;;;5069225;28;20068;-83
2024/02/16 08:42:08;;;;;;;4.82;3.03;;;13.10;99.90;;;;;;5090620;28;20356;-83
2024/02/16 08:44:37;;;;;;;4.22;2.90;;;13.20;99.90;;;;;;5088805;28;20091;-83
2024/02/16 08:47:02;;;;;;;5.15;2.88;;;13.20;99.90;;;;;;5089706;28;20031;-83
2024/02/16 08:49:28;;;;;;;4.53;2.85;;;13.30;99.90;;;;;;5081902;28;20036;-82
2024/02/16 08:51:54;;;;;;;4.72;2.90;;;13.30;99.90;;;;;;5079964;28;20028;-83
2024/02/16 08:54:22;;;;;;;3.88;2.53;;;13.30;99.90;;;;;;5063042;28;20030;-83
2024/02/16 08:56:48;;;;;;;5.28;3.10;;;13.30;99.90;;;;;;5063580;28;20402;-83
2024/02/16 08:59:14;;;;;;;7.53;3.05;;;13.30;99.90;;;;;;5079105;28;20028;-83
2024/02/16 09:01:42;;;;;;;5.78;3.03;;;13.30;99.90;;;;;;5062822;28;20032;-84
2024/02/16 09:04:07;;;;;;;8.40;3.00;;;13.40;99.90;;;;;;5063352;28;20123;-84
2024/02/16 09:06:34;;;;;;;3.83;2.58;;;13.40;99.90;;;;;;5062628;28;20119;-83
2024/02/16 09:09:00;;;;;;;4.55;2.80;;;13.50;99.90;;;;;;5097373;28;20024;-84
2024/02/16 09:11:27;;;;;;;6.45;2.80;;;13.50;99.90;;;;;;5079250;28;20482;-82
2024/02/16 09:13:53;;;;;;;5.38;3.00;;;13.50;99.90;;;;;;5079257;28;20032;-82
2024/02/16 09:16:19;;;;;;;5.35;2.67;;;13.50;99.90;;;;;;5062337;28;20031;-83
2024/02/16 09:18:45;;;;;;;6.03;2.90;;;13.50;99.90;;;;;;5078358;28;20055;-83
2024/02/16 09:21:11;;;;;;;5.20;3.22;;;13.60;99.90;;;;;;5079053;28;20464;-83
2024/02/16 09:23:37;;;;;;;5.95;3.60;;;13.60;99.90;;;;;;5062127;28;20090;-83
2024/02/16 09:26:03;;;;;;;5.88;2.90;;;13.60;99.90;;;;;;5078984;28;20029;-82
2024/02/16 09:28:29;;;;;;;4.85;3.05;;;13.60;99.90;;;;;;5078337;28;20097;-83
2024/02/16 09:30:56;;;;;;;5.95;2.85;;;13.60;99.90;;;;;;5062204;28;20385;-83
2024/02/16 09:33:22;;;;;;;7.82;3.28;;;13.60;99.90;;;;;;5079085;28;20033;-83
2024/02/16 09:35:51;;;;;;;6.10;2.90;;;13.70;99.90;;;;;;5096913;28;20020;-83
2024/02/16 09:38:17;;;;;;;5.40;3.10;;;13.70;99.90;;;;;;5062125;28;20115;-83
2024/02/16 09:40:43;;;;;;;4.50;3.45;;;13.70;99.90;;;;;;5096903;28;20028;-82
2024/02/16 09:43:09;;;;;;;6.82;3.22;;;13.70;99.90;;;;;;5097285;28;20032;-84
2024/02/16 09:45:35;;;;;;;5.18;3.40;;;13.70;99.90;;;;;;5078954;28;20051;-83
2024/02/16 09:48:02;;;;;;;5.05;3.38;;;13.70;99.90;;;;;;5078683;28;20032;-82
2024/02/16 09:50:29;;;;;;;8.13;3.72;;;13.70;99.90;;;;;;5078910;28;20503;-83
2024/02/16 09:52:56;;;;;;;5.78;2.97;;;13.80;99.90;;;;;;5078585;28;20032;-82
2024/02/16 09:55:22;;;;;;;6.60;3.60;;;13.70;99.90;;;;;;5077461;28;20476;-82
2024/02/16 09:57:59;;;;;;;6.05;3.70;;;13.80;99.90;;;;;;5078616;28;20035;-83
2024/02/16 10:00:25;;;;;;;6.28;3.53;;;13.80;99.90;;;;;;5096608;28;20442;-82
2024/02/16 10:02:50;;;;;;;8.43;3.67;;;13.80;99.90;;;;;;5078564;28;20024;-82
2024/02/16 10:05:19;;;;;;;6.93;3.53;;;13.80;99.90;;;;;;5085985;28;20081;-84
2024/02/16 10:07:45;;;;;;;7.70;4.05;;;13.80;99.90;;;;;;5103051;28;20008;-83
2024/02/16 10:10:32;;;;;;;6.88;3.65;;;13.80;99.90;;;;;;5103286;28;20122;-82
2024/02/16 10:13:05;;;;;;;7.30;3.45;;;13.90;99.90;;;;;;5086935;28;20146;-83
2024/02/16 10:15:34;;;;;;;6.20;3.67;;;13.90;99.90;;;;;;5110815;28;20028;-82
2024/02/16 10:18:08;;;;;;;6.65;3.53;;;13.90;99.90;;;;;;5096798;28;20504;-83
2024/02/16 10:20:35;;;;;;;6.80;3.97;;;13.90;99.90;;;;;;5061226;28;20076;-83
2024/02/16 10:23:11;;;;;;;6.97;4.07;;;13.90;99.90;;;;;;5077535;28;20110;-82
2024/02/16 10:25:40;;;;;;;7.13;3.67;;;14.00;99.90;;;;;;5077413;28;20020;-83
2024/02/16 10:28:16;;;;;;;6.28;3.85;;;14.00;99.90;;;;;;5077596;28;20028;-83
2024/02/16 10:30:43;;;;;;;5.30;3.65;;;14.00;99.90;;;;;;5078090;28;20123;-83
2024/02/16 10:33:09;;;;;;;5.07;3.70;;;14.00;99.90;;;;;;5077349;28;20028;-82
2024/02/16 10:35:36;;;;;;;7.85;4.13;;;14.00;99.90;;;;;;5076996;28;20407;-83
2024/02/16 10:38:09;;;;;;;5.50;4.05;;;14.00;99.90;;;;;;5077244;28;20035;-83
2024/02/16 10:40:42;;;;;;;8.82;4.10;;;14.00;99.90;;;;;;5077179;28;20428;-83
2024/02/16 10:43:11;;;;;;;8.95;4.30;;;14.00;99.90;;;;;;5060174;28;20063;-83
2024/02/16 10:45:38;;;;;;;6.75;4.22;;;14.00;99.90;;;;;;5076777;28;20421;-82
2024/02/16 10:48:05;;;;;;;7.28;4.03;;;14.00;99.90;;;;;;5076980;28;20073;-82
2024/02/16 10:50:36;;;;;;;9.85;4.20;;;14.00;99.90;;;;;;5059818;28;20048;-83
2024/02/16 10:53:19;;;;;;;10.48;4.05;;;14.00;99.90;;;;;;5060145;28;20456;-82
2024/02/16 10:55:45;;;;;;;6.03;4.00;;;14.00;99.90;;;;;;5077223;28;20066;-83
2024/02/16 10:58:12;;;;;;;5.43;4.07;;;14.00;99.90;;;;;;5094508;28;20028;-83
2024/02/16 11:00:58;;;;;;;5.85;3.90;;;14.00;99.90;;;;;;5059689;28;20470;-83
2024/02/16 11:03:49;;;;;;;;;;;;;;;;;;;;;
2024/02/16 11:06:34;;;;;;;7.72;3.78;;;14.00;99.90;;;;;;5079205;28;20027;-83
2024/02/16 11:09:10;;;;;;;8.55;4.20;;;14.00;99.90;;;;;;5078350;28;20032;-83
2024/02/16 11:11:36;;;;;;;8.75;4.75;;;14.00;99.90;;;;;;5077339;28;20058;-83
2024/02/16 11:14:03;;;;;;;8.38;5.03;;;14.00;99.90;;;;;;5059815;28;20036;-84
2024/02/16 11:16:29;;;;;;;9.23;5.10;;;14.00;99.90;;;;;;5075585;28;20024;-83
2024/02/16 11:18:56;;;;;;;5.63;4.50;;;13.90;99.90;;;;;;5094547;28;20032;-83
2024/02/16 11:21:22;;;;;;;7.80;4.70;;;13.90;99.90;;;;;;5075937;28;20081;-84
2024/02/16 11:23:48;;;;;;;6.93;5.03;;;13.90;99.90;;;;;;5059622;28;20472;-83
2024/02/16 11:26:17;;;;;;;6.15;4.65;;;13.90;99.90;;;;;;5076296;28;20024;-84
2024/02/16 11:28:43;;;;;;;7.40;4.70;;;13.90;99.90;;;;;;5076867;28;20059;-84
2024/02/16 11:31:09;;;;;;;7.15;4.88;;;13.90;99.90;;;;;;5060355;28;20047;-84
2024/02/16 11:33:35;;;;;;;6.30;4.65;;;13.80;99.90;;;;;;5095130;28;20478;-83
2024/02/16 11:36:08;;;;;;;8.27;5.15;;;13.80;99.90;;;;;;5076703;28;20020;-84
2024/02/16 11:38:34;;;;;;;7.68;5.13;;;13.80;99.90;;;;;;5094903;28;20069;-83
2024/02/16 11:41:05;;;;;;;10.65;5.50;;;13.80;99.90;;;;;;5060235;28;20114;-84
2024/02/16 11:43:34;;;;;;;;;;;13.80;99.90;;;;;;5083939;28;20004;-85
2024/02/16 11:46:10;;;;;;;7.28;5.57;;;13.70;99.90;;;;;;5101133;28;19907;-84
2024/02/16 11:48:36;;;;;;;7.45;5.43;;;13.70;99.90;;;;;;5118846;28;20008;-85
2024/02/16 11:51:10;;;;;;;7.68;5.85;;;13.70;99.90;;;;;;5118532;28;20036;-84
2024/02/16 11:53:36;;;;;;;7.75;5.93;;;13.70;99.90;;;;;;5094388;28;20024;-84
2024/02/16 11:56:02;;;;;;;8.00;6.07;;;13.70;99.90;;;;;;5076523;28;20028;-85
2024/02/16 11:58:29;;;;;;;7.93;6.28;;;13.60;99.90;;;;;;5059258;28;20035;-86
2024/02/16 12:00:59;;;;;;;10.38;6.75;;;13.60;99.90;;;;;;5093894;28;20089;-84
2024/02/16 12:03:27;;;;;;;8.60;6.38;;;13.60;99.90;;;;;;5076197;28;20012;-85
2024/02/16 12:05:54;;;;;;;9.70;6.65;;;13.60;99.90;;;;;;5075080;28;20129;-83
2024/02/16 12:08:21;;;;;;;9.73;6.38;;;13.60;99.90;;;;;;5059139;28;20554;-83
2024/02/16 12:10:48;;;;;;;8.38;6.35;;;13.60;99.90;;;;;;5075662;28;20112;-83
2024/02/16 12:13:19;;;;;;;8.63;6.55;;;13.60;99.90;;;;;;5075651;28;20039;-83
2024/02/16 12:15:49;;;;;;;8.32;6.03;;;13.50;99.90;;;;;;5074988;28;20058;-83
2024/02/16 12:18:27;;;;;;;8.93;6.15;;;13.50;99.90;;;;;;5092722;28;20036;-82
2024/02/16 12:21:03;;;;;;;8.43;6.00;;;13.50;99.90;;;;;;5075806;28;20525;-82
2024/02/16 12:23:32;;;;;;;7.93;6.07;;;13.60;99.90;;;;;;5075365;28;20071;-82
2024/02/16 12:26:00;;;;;;;7.72;6.38;;;13.50;99.90;;;;;;5059187;28;20023;-83
2024/02/16 12:28:31;;;;;;;7.47;5.90;;;13.60;99.90;;;;;;5075713;28;20031;-83
2024/02/16 12:30:57;;;;;;;10.85;5.82;;;13.60;99.90;;;;;;5076892;28;20471;-82
2024/02/16 12:33:23;;;;;;;6.78;5.97;;;13.60;99.90;;;;;;5058653;28;20029;-82
2024/02/16 12:35:50;;;;;;;7.63;5.72;;;13.60;99.90;;;;;;5093143;28;20024;-81
2024/02/16 12:38:19;;;;;;;7.75;6.15;;;13.60;99.90;;;;;;5093272;28;20055;-83
2024/02/16 12:40:48;;;;;;;7.40;5.90;;;13.60;99.90;;;;;;5075020;28;20513;-83
2024/02/16 12:43:19;;;;;;;6.45;5.40;;;13.60;99.90;;;;;;5075473;28;20075;-82
2024/02/16 12:45:48;;;;;;;7.30;5.85;;;13.60;99.90;;;;;;5058781;28;20028;-82
2024/02/16 12:48:14;;;;;;;6.55;5.13;;;13.50;99.90;;;;;;5076098;28;20480;-83